Orbital elements of ARIANE 1 DEB
| Launched | 1 July 1985 |
| Flight ended | – |
| Launch site | Europe's Spaceport, Kourou, French Guiana |
| Owner | France |
| NORAD ID | 19857 |
| Date fetched |
Epoch osculation |
Inc. [°] |
Ecc. | RA asc node [hr] |
Arg Peri. [°] |
Mean anom [°] |
Mean motion [rev/day] |
Abs. mag |
| Date fetched |
Epoch osculation |
Inc. [°] |
Ecc. | RA asc node [hr] |
Arg Peri. [°] |
Mean anom [°] |
Mean motion [rev/day] |
Abs. mag |
| 2026 May 07 17:58 | 2026 May 04 21:57:21 | 7.1348 | 0.70882 | 1.4915 | 120.3270 | 286.0656 | 2.29616 | – |
| 2026 May 06 17:57 | 2026 May 04 21:57:21 | 7.1348 | 0.70882 | 1.4915 | 120.3270 | 286.0656 | 2.29616 | – |
| 2026 May 05 17:57 | 2026 May 04 21:57:21 | 7.1348 | 0.70882 | 1.4915 | 120.3270 | 286.0656 | 2.29616 | – |
| 2026 May 04 17:57 | 2026 Apr 30 05:20:32 | 7.1389 | 0.70875 | 1.6024 | 116.9673 | 286.0656 | 2.29616 | – |
| 2026 May 03 17:57 | 2026 Apr 30 05:20:32 | 7.1389 | 0.70875 | 1.6024 | 116.9673 | 286.0656 | 2.29616 | – |
| 2026 May 02 17:57 | 2026 Apr 30 05:20:32 | 7.1389 | 0.70875 | 1.6024 | 116.9673 | 286.0656 | 2.29616 | – |
| 2026 May 01 17:56 | 2026 Apr 30 05:20:32 | 7.1389 | 0.70875 | 1.6024 | 116.9673 | 286.0656 | 2.29616 | – |
| 2026 Apr 30 17:56 | 2026 Apr 30 05:20:32 | 7.1389 | 0.70875 | 1.6024 | 116.9673 | 286.0656 | 2.29616 | – |
| 2026 Apr 29 17:57 | 2026 Apr 24 02:56:16 | 7.1428 | 0.70867 | 1.7445 | 112.6280 | 286.0656 | 2.29616 | – |
| 2026 Apr 28 17:56 | 2026 Apr 24 02:56:16 | 7.1428 | 0.70867 | 1.7445 | 112.6280 | 286.0656 | 2.29616 | – |
| 2026 Apr 27 17:58 | 2026 Apr 24 02:56:16 | 7.1428 | 0.70867 | 1.7445 | 112.6280 | 286.0656 | 2.29616 | – |
| 2026 Apr 26 17:58 | 2026 Apr 24 02:56:16 | 7.1428 | 0.70867 | 1.7445 | 112.6280 | 286.0656 | 2.29616 | – |
| 2026 Apr 25 17:58 | 2026 Apr 24 02:56:16 | 7.1428 | 0.70867 | 1.7445 | 112.6280 | 286.0656 | 2.29616 | – |
| 2026 Apr 24 17:59 | 2026 Apr 24 02:56:16 | 7.1428 | 0.70867 | 1.7445 | 112.6280 | 286.0656 | 2.29616 | – |
| 2026 Apr 23 17:57 | 2026 Apr 18 21:12:19 | 7.1451 | 0.70855 | 1.8665 | 108.9031 | 286.0656 | 2.29616 | – |
| 2026 Apr 22 17:57 | 2026 Apr 18 21:12:19 | 7.1451 | 0.70855 | 1.8665 | 108.9031 | 286.0656 | 2.29616 | – |
| 2026 Apr 21 17:57 | 2026 Apr 18 21:12:19 | 7.1451 | 0.70855 | 1.8665 | 108.9031 | 286.0656 | 2.29616 | – |
| 2026 Apr 20 17:57 | 2026 Apr 18 21:12:19 | 7.1451 | 0.70855 | 1.8665 | 108.9031 | 286.0656 | 2.29616 | – |
| 2026 Apr 19 17:58 | 2026 Apr 18 21:12:19 | 7.1451 | 0.70855 | 1.8665 | 108.9031 | 286.0656 | 2.29616 | – |
| 2026 Apr 18 17:56 | 2026 Apr 13 05:42:46 | 7.1458 | 0.70855 | 1.9988 | 104.8762 | 286.0656 | 2.29616 | – |
| 2026 Apr 16 17:57 | 2026 Apr 13 05:42:46 | 7.1458 | 0.70855 | 1.9988 | 104.8762 | 286.0656 | 2.29616 | – |
| 2026 Apr 14 17:57 | 2026 Apr 13 05:42:46 | 7.1458 | 0.70855 | 1.9988 | 104.8762 | 286.0656 | 2.29616 | – |
| 2026 Apr 13 17:57 | 2026 Apr 13 05:42:46 | 7.1458 | 0.70855 | 1.9988 | 104.8762 | 286.0656 | 2.29616 | – |
| 2026 Apr 12 17:57 | 2026 Apr 08 02:39:38 | 7.1470 | 0.70854 | 2.1162 | 101.2574 | 286.0656 | 2.29616 | – |
| 2026 Apr 11 17:57 | 2026 Apr 08 02:39:38 | 7.1470 | 0.70854 | 2.1162 | 101.2574 | 286.0656 | 2.29616 | – |
| 2026 Apr 10 17:58 | 2026 Apr 08 02:39:38 | 7.1470 | 0.70854 | 2.1162 | 101.2574 | 286.0656 | 2.29616 | – |